sensor_id;sensor_type;location;lat;lon;timestamp;temperature;humidity
48043;DHT22;33988;47.992;8.820;2023-01-01T00:01:27;12.00;65.10
48043;DHT22;33988;47.992;8.820;2023-01-01T00:03:56;12.00;65.10
48043;DHT22;33988;47.992;8.820;2023-01-01T00:06:25;12.00;65.10
48043;DHT22;33988;47.992;8.820;2023-01-01T00:08:54;12.00;65.10
48043;DHT22;33988;47.992;8.820;2023-01-01T00:11:47;12.00;65.20
48043;DHT22;33988;47.992;8.820;2023-01-01T00:14:18;11.90;65.20
48043;DHT22;33988;47.992;8.820;2023-01-01T00:16:45;11.90;65.40
48043;DHT22;33988;47.992;8.820;2023-01-01T00:19:14;11.90;65.50
48043;DHT22;33988;47.992;8.820;2023-01-01T00:21:41;11.90;65.60
48043;DHT22;33988;47.992;8.820;2023-01-01T00:24:11;11.90;65.60
48043;DHT22;33988;47.992;8.820;2023-01-01T00:26:39;12.00;65.60
48043;DHT22;33988;47.992;8.820;2023-01-01T00:29:08;12.00;65.50
48043;DHT22;33988;47.992;8.820;2023-01-01T00:31:35;12.00;65.40
48043;DHT22;33988;47.992;8.820;2023-01-01T00:34:02;12.00;65.40
48043;DHT22;33988;47.992;8.820;2023-01-01T00:36:29;12.00;65.30
48043;DHT22;33988;47.992;8.820;2023-01-01T00:39:00;12.00;65.20
48043;DHT22;33988;47.992;8.820;2023-01-01T00:41:31;12.00;65.10
48043;DHT22;33988;47.992;8.820;2023-01-01T00:44:01;11.90;65.00
48043;DHT22;33988;47.992;8.820;2023-01-01T00:46:28;11.90;64.90
48043;DHT22;33988;47.992;8.820;2023-01-01T00:48:55;11.90;64.90
48043;DHT22;33988;47.992;8.820;2023-01-01T00:51:24;11.90;65.00
48043;DHT22;33988;47.992;8.820;2023-01-01T00:53:53;11.90;65.00
48043;DHT22;33988;47.992;8.820;2023-01-01T00:56:22;11.90;65.00
48043;DHT22;33988;47.992;8.820;2023-01-01T00:58:49;11.80;64.80
48043;DHT22;33988;47.992;8.820;2023-01-01T01:01:27;11.80;64.80
48043;DHT22;33988;47.992;8.820;2023-01-01T01:03:54;11.80;64.80
48043;DHT22;33988;47.992;8.820;2023-01-01T01:06:23;11.80;64.80
48043;DHT22;33988;47.992;8.820;2023-01-01T01:08:53;11.80;64.70
48043;DHT22;33988;47.992;8.820;2023-01-01T01:11:25;11.80;64.70
48043;DHT22;33988;47.992;8.820;2023-01-01T01:13:58;11.70;64.60
48043;DHT22;33988;47.992;8.820;2023-01-01T01:16:30;11.70;64.60
48043;DHT22;33988;47.992;8.820;2023-01-01T01:19:03;11.70;64.60
48043;DHT22;33988;47.992;8.820;2023-01-01T01:21:33;11.70;64.60
48043;DHT22;33988;47.992;8.820;2023-01-01T01:24:04;11.70;64.70
48043;DHT22;33988;47.992;8.820;2023-01-01T01:26:32;11.60;64.70
48043;DHT22;33988;47.992;8.820;2023-01-01T01:29:03;11.60;64.90
48043;DHT22;33988;47.992;8.820;2023-01-01T01:31:31;11.60;65.10
48043;DHT22;33988;47.992;8.820;2023-01-01T01:34:01;11.60;65.30
48043;DHT22;33988;47.992;8.820;2023-01-01T01:36:30;11.40;65.50
48043;DHT22;33988;47.992;8.820;2023-01-01T01:39:00;11.60;65.40
48043;DHT22;33988;47.992;8.820;2023-01-01T01:41:29;11.50;65.30
48043;DHT22;33988;47.992;8.820;2023-01-01T01:43:58;11.50;65.40
48043;DHT22;33988;47.992;8.820;2023-01-01T01:46:37;11.50;65.50
48043;DHT22;33988;47.992;8.820;2023-01-01T01:49:26;11.50;65.60
48043;DHT22;33988;47.992;8.820;2023-01-01T01:51:59;11.50;65.90
48043;DHT22;33988;47.992;8.820;2023-01-01T01:54:29;11.50;65.70
48043;DHT22;33988;47.992;8.820;2023-01-01T01:56:59;11.40;65.70
48043;DHT22;33988;47.992;8.820;2023-01-01T01:59:37;11.40;65.80
48043;DHT22;33988;47.992;8.820;2023-01-01T02:02:55;11.40;65.80
48043;DHT22;33988;47.992;8.820;2023-01-01T02:05:04;11.40;65.90
48043;DHT22;33988;47.992;8.820;2023-01-01T02:07:32;11.40;65.90
48043;DHT22;33988;47.992;8.820;2023-01-01T02:10:01;11.40;65.90
48043;DHT22;33988;47.992;8.820;2023-01-01T02:12:31;11.30;65.90
48043;DHT22;33988;47.992;8.820;2023-01-01T02:15:00;11.30;66.00
48043;DHT22;33988;47.992;8.820;2023-01-01T02:23:25;11.20;66.20
48043;DHT22;33988;47.992;8.820;2023-01-01T02:26:06;11.20;66.20
48043;DHT22;33988;47.992;8.820;2023-01-01T02:29:05;11.10;66.10
48043;DHT22;33988;47.992;8.820;2023-01-01T02:31:46;11.10;66.20
48043;DHT22;33988;47.992;8.820;2023-01-01T02:34:20;11.00;66.10
48043;DHT22;33988;47.992;8.820;2023-01-01T02:36:54;11.10;66.10
48043;DHT22;33988;47.992;8.820;2023-01-01T02:39:28;11.10;66.20
48043;DHT22;33988;47.992;8.820;2023-01-01T02:41:58;11.10;66.30
48043;DHT22;33988;47.992;8.820;2023-01-01T02:44:30;11.10;66.30
48043;DHT22;33988;47.992;8.820;2023-01-01T02:47:05;11.00;66.20
48043;DHT22;33988;47.992;8.820;2023-01-01T02:49:41;11.00;66.30
48043;DHT22;33988;47.992;8.820;2023-01-01T02:57:45;11.00;66.40
48043;DHT22;33988;47.992;8.820;2023-01-01T03:00:18;11.00;66.40
48043;DHT22;33988;47.992;8.820;2023-01-01T03:15:39;10.90;66.40
48043;DHT22;33988;47.992;8.820;2023-01-01T03:18:17;10.90;66.50
48043;DHT22;33988;47.992;8.820;2023-01-01T03:20:54;10.90;66.50
48043;DHT22;33988;47.992;8.820;2023-01-01T03:23:26;10.90;66.60
48043;DHT22;33988;47.992;8.820;2023-01-01T03:26:00;10.90;66.60
48043;DHT22;33988;47.992;8.820;2023-01-01T03:28:42;10.90;66.60
48043;DHT22;33988;47.992;8.820;2023-01-01T03:31:18;10.90;66.70
48043;DHT22;33988;47.992;8.820;2023-01-01T03:34:12;10.80;66.70
48043;DHT22;33988;47.992;8.820;2023-01-01T03:36:48;10.80;66.70
48043;DHT22;33988;47.992;8.820;2023-01-01T03:39:20;10.80;66.70
48043;DHT22;33988;47.992;8.820;2023-01-01T03:42:14;10.80;66.80
48043;DHT22;33988;47.992;8.820;2023-01-01T03:45:04;10.80;66.80
48043;DHT22;33988;47.992;8.820;2023-01-01T03:47:47;10.80;66.60
48043;DHT22;33988;47.992;8.820;2023-01-01T03:50:14;10.80;66.60
48043;DHT22;33988;47.992;8.820;2023-01-01T03:53:00;10.80;66.60
48043;DHT22;33988;47.992;8.820;2023-01-01T03:55:37;10.80;66.60
48043;DHT22;33988;47.992;8.820;2023-01-01T04:01:03;10.70;66.50
48043;DHT22;33988;47.992;8.820;2023-01-01T04:03:37;10.70;66.50
48043;DHT22;33988;47.992;8.820;2023-01-01T04:06:08;10.70;66.50
48043;DHT22;33988;47.992;8.820;2023-01-01T04:08:39;10.70;66.50
48043;DHT22;33988;47.992;8.820;2023-01-01T04:11:18;10.70;66.40
48043;DHT22;33988;47.992;8.820;2023-01-01T04:14:09;10.60;66.30
48043;DHT22;33988;47.992;8.820;2023-01-01T04:16:39;10.60;66.30
48043;DHT22;33988;47.992;8.820;2023-01-01T04:19:06;10.60;66.30
48043;DHT22;33988;47.992;8.820;2023-01-01T04:21:33;10.60;66.30
48043;DHT22;33988;47.992;8.820;2023-01-01T04:24:02;10.60;66.50
48043;DHT22;33988;47.992;8.820;2023-01-01T04:26:29;10.60;66.60
48043;DHT22;33988;47.992;8.820;2023-01-01T04:28:58;10.60;66.70
48043;DHT22;33988;47.992;8.820;2023-01-01T04:31:25;10.60;66.80
48043;DHT22;33988;47.992;8.820;2023-01-01T04:33:59;10.60;66.80
48043;DHT22;33988;47.992;8.820;2023-01-01T04:36:28;10.60;66.70
48043;DHT22;33988;47.992;8.820;2023-01-01T04:38:58;10.60;66.60
48043;DHT22;33988;47.992;8.820;2023-01-01T04:41:27;10.60;66.50
48043;DHT22;33988;47.992;8.820;2023-01-01T04:43:56;10.60;66.40
48043;DHT22;33988;47.992;8.820;2023-01-01T04:46:24;10.50;66.20
48043;DHT22;33988;47.992;8.820;2023-01-01T04:48:51;10.50;66.20
48043;DHT22;33988;47.992;8.820;2023-01-01T04:51:20;10.50;66.20
48043;DHT22;33988;47.992;8.820;2023-01-01T04:53:49;10.50;66.10
48043;DHT22;33988;47.992;8.820;2023-01-01T04:56:23;10.50;66.20
48043;DHT22;33988;47.992;8.820;2023-01-01T04:58:57;10.50;66.10
48043;DHT22;33988;47.992;8.820;2023-01-01T05:01:28;10.50;66.00
48043;DHT22;33988;47.992;8.820;2023-01-01T05:03:58;10.40;65.80
48043;DHT22;33988;47.992;8.820;2023-01-01T05:06:28;10.40;65.90
48043;DHT22;33988;47.992;8.820;2023-01-01T05:08:56;10.40;65.90
48043;DHT22;33988;47.992;8.820;2023-01-01T05:11:26;10.40;65.90
48043;DHT22;33988;47.992;8.820;2023-01-01T05:13:57;10.40;65.90
48043;DHT22;33988;47.992;8.820;2023-01-01T05:16:27;10.30;65.80
48043;DHT22;33988;47.992;8.820;2023-01-01T05:18:57;10.30;65.90
48043;DHT22;33988;47.992;8.820;2023-01-01T05:21:35;10.30;65.90
48043;DHT22;33988;47.992;8.820;2023-01-01T05:24:08;10.30;65.90
48043;DHT22;33988;47.992;8.820;2023-01-01T05:26:42;10.30;66.00
48043;DHT22;33988;47.992;8.820;2023-01-01T05:29:10;10.30;65.90
48043;DHT22;33988;47.992;8.820;2023-01-01T05:31:45;10.20;65.90
48043;DHT22;33988;47.992;8.820;2023-01-01T05:34:12;10.20;65.80
48043;DHT22;33988;47.992;8.820;2023-01-01T05:36:39;10.20;65.80
48043;DHT22;33988;47.992;8.820;2023-01-01T05:39:10;10.20;65.70
48043;DHT22;33988;47.992;8.820;2023-01-01T05:41:39;10.20;65.50
48043;DHT22;33988;47.992;8.820;2023-01-01T05:44:07;10.10;65.50
48043;DHT22;33988;47.992;8.820;2023-01-01T05:46:35;10.10;65.40
48043;DHT22;33988;47.992;8.820;2023-01-01T05:49:04;10.10;65.50
48043;DHT22;33988;47.992;8.820;2023-01-01T05:51:35;10.10;65.40
48043;DHT22;33988;47.992;8.820;2023-01-01T05:54:01;10.00;65.40
48043;DHT22;33988;47.992;8.820;2023-01-01T05:56:28;10.00;65.40
48043;DHT22;33988;47.992;8.820;2023-01-01T05:58:56;9.90;65.30
48043;DHT22;33988;47.992;8.820;2023-01-01T06:01:30;9.90;65.30
48043;DHT22;33988;47.992;8.820;2023-01-01T06:04:08;9.90;65.40
48043;DHT22;33988;47.992;8.820;2023-01-01T06:06:35;9.90;65.50
48043;DHT22;33988;47.992;8.820;2023-01-01T06:09:04;9.80;65.50
48043;DHT22;33988;47.992;8.820;2023-01-01T06:11:37;9.80;65.50
48043;DHT22;33988;47.992;8.820;2023-01-01T06:14:06;9.80;65.50
48043;DHT22;33988;47.992;8.820;2023-01-01T06:16:33;9.80;65.60
48043;DHT22;33988;47.992;8.820;2023-01-01T06:19:00;9.80;65.60
48043;DHT22;33988;47.992;8.820;2023-01-01T06:21:29;9.70;65.50
48043;DHT22;33988;47.992;8.820;2023-01-01T06:23:59;9.70;65.50
48043;DHT22;33988;47.992;8.820;2023-01-01T06:26:31;9.70;65.50
48043;DHT22;33988;47.992;8.820;2023-01-01T06:28:59;9.70;65.40
48043;DHT22;33988;47.992;8.820;2023-01-01T06:31:28;9.70;65.40
48043;DHT22;33988;47.992;8.820;2023-01-01T06:34:01;9.70;65.40
48043;DHT22;33988;47.992;8.820;2023-01-01T06:36:28;9.70;65.40
48043;DHT22;33988;47.992;8.820;2023-01-01T06:38:57;9.70;65.40
48043;DHT22;33988;47.992;8.820;2023-01-01T06:41:26;9.70;65.50
48043;DHT22;33988;47.992;8.820;2023-01-01T06:43:54;9.60;65.60
48043;DHT22;33988;47.992;8.820;2023-01-01T06:46:30;9.70;65.70
48043;DHT22;33988;47.992;8.820;2023-01-01T06:49:08;9.60;65.70
48043;DHT22;33988;47.992;8.820;2023-01-01T06:51:40;9.60;65.70
48043;DHT22;33988;47.992;8.820;2023-01-01T06:54:10;9.60;65.70
48043;DHT22;33988;47.992;8.820;2023-01-01T06:56:42;9.60;66.60
48043;DHT22;33988;47.992;8.820;2023-01-01T06:59:09;9.60;65.80
48043;DHT22;33988;47.992;8.820;2023-01-01T07:01:38;9.60;65.80
48043;DHT22;33988;47.992;8.820;2023-01-01T07:04:12;9.60;65.70
48043;DHT22;33988;47.992;8.820;2023-01-01T07:06:41;9.60;65.70
48043;DHT22;33988;47.992;8.820;2023-01-01T07:09:10;9.60;65.70
48043;DHT22;33988;47.992;8.820;2023-01-01T07:11:37;9.60;65.70
48043;DHT22;33988;47.992;8.820;2023-01-01T07:14:06;9.60;65.60
48043;DHT22;33988;47.992;8.820;2023-01-01T07:16:33;9.60;65.60
48043;DHT22;33988;47.992;8.820;2023-01-01T07:19:00;9.60;65.60
48043;DHT22;33988;47.992;8.820;2023-01-01T07:21:32;9.60;65.60
48043;DHT22;33988;47.992;8.820;2023-01-01T07:24:02;9.50;65.50
48043;DHT22;33988;47.992;8.820;2023-01-01T07:26:32;9.50;65.60
48043;DHT22;33988;47.992;8.820;2023-01-01T07:28:59;9.50;65.60
48043;DHT22;33988;47.992;8.820;2023-01-01T07:31:38;9.50;65.60
48043;DHT22;33988;47.992;8.820;2023-01-01T07:34:14;9.50;65.60
48043;DHT22;33988;47.992;8.820;2023-01-01T07:36:42;9.50;65.60
48043;DHT22;33988;47.992;8.820;2023-01-01T07:39:11;9.50;65.60
48043;DHT22;33988;47.992;8.820;2023-01-01T07:41:40;9.50;65.60
48043;DHT22;33988;47.992;8.820;2023-01-01T07:44:07;9.50;65.60
48043;DHT22;33988;47.992;8.820;2023-01-01T07:46:35;9.50;65.70
48043;DHT22;33988;47.992;8.820;2023-01-01T07:49:03;9.50;65.70
48043;DHT22;33988;47.992;8.820;2023-01-01T07:51:33;9.50;65.80
48043;DHT22;33988;47.992;8.820;2023-01-01T07:54:00;9.50;65.70
48043;DHT22;33988;47.992;8.820;2023-01-01T07:56:33;9.60;65.80
48043;DHT22;33988;47.992;8.820;2023-01-01T07:59:02;9.60;65.80
48043;DHT22;33988;47.992;8.820;2023-01-01T08:01:29;9.60;65.80
48043;DHT22;33988;47.992;8.820;2023-01-01T08:03:56;9.60;65.80
48043;DHT22;33988;47.992;8.820;2023-01-01T08:06:23;9.60;65.90
48043;DHT22;33988;47.992;8.820;2023-01-01T08:08:53;9.60;65.90
48043;DHT22;33988;47.992;8.820;2023-01-01T08:11:22;9.60;65.90
48043;DHT22;33988;47.992;8.820;2023-01-01T08:13:49;9.60;65.90
48043;DHT22;33988;47.992;8.820;2023-01-01T08:16:16;9.70;65.90
48043;DHT22;33988;47.992;8.820;2023-01-01T08:18:46;9.70;65.90
48043;DHT22;33988;47.992;8.820;2023-01-01T08:21:13;9.70;65.90
48043;DHT22;33988;47.992;8.820;2023-01-01T08:23:42;9.80;65.90
48043;DHT22;33988;47.992;8.820;2023-01-01T08:26:16;9.80;65.90
48043;DHT22;33988;47.992;8.820;2023-01-01T08:28:51;9.80;66.00
48043;DHT22;33988;47.992;8.820;2023-01-01T08:31:23;9.90;66.10
48043;DHT22;33988;47.992;8.820;2023-01-01T08:33:51;9.90;66.10
48043;DHT22;33988;47.992;8.820;2023-01-01T08:36:20;10.00;66.10
48043;DHT22;33988;47.992;8.820;2023-01-01T08:38:47;10.00;66.10
48043;DHT22;33988;47.992;8.820;2023-01-01T08:41:14;10.10;66.20
48043;DHT22;33988;47.992;8.820;2023-01-01T08:43:41;10.10;66.20
48043;DHT22;33988;47.992;8.820;2023-01-01T08:46:10;10.20;66.30
48043;DHT22;33988;47.992;8.820;2023-01-01T08:48:42;10.30;66.30
48043;DHT22;33988;47.992;8.820;2023-01-01T08:51:11;10.30;66.20
48043;DHT22;33988;47.992;8.820;2023-01-01T08:53:38;10.40;66.40
48043;DHT22;33988;47.992;8.820;2023-01-01T08:56:16;10.40;66.50
48043;DHT22;33988;47.992;8.820;2023-01-01T08:58:43;10.50;66.50
48043;DHT22;33988;47.992;8.820;2023-01-01T09:01:09;10.50;66.50
48043;DHT22;33988;47.992;8.820;2023-01-01T09:03:37;10.50;66.50
48043;DHT22;33988;47.992;8.820;2023-01-01T09:06:04;10.60;66.50
48043;DHT22;33988;47.992;8.820;2023-01-01T09:08:31;10.60;66.30
48043;DHT22;33988;47.992;8.820;2023-01-01T09:11:00;10.60;66.00
48043;DHT22;33988;47.992;8.820;2023-01-01T09:13:28;10.60;65.80
48043;DHT22;33988;47.992;8.820;2023-01-01T09:15:56;10.70;65.80
48043;DHT22;33988;47.992;8.820;2023-01-01T09:18:23;10.70;65.80
48043;DHT22;33988;47.992;8.820;2023-01-01T09:20:50;10.70;65.80
48043;DHT22;33988;47.992;8.820;2023-01-01T09:23:20;10.70;65.80
48043;DHT22;33988;47.992;8.820;2023-01-01T09:25:49;10.70;65.80
48043;DHT22;33988;47.992;8.820;2023-01-01T09:28:16;10.70;65.80
48043;DHT22;33988;47.992;8.820;2023-01-01T09:30:51;10.70;65.90
48043;DHT22;33988;47.992;8.820;2023-01-01T09:33:17;10.80;66.00
48043;DHT22;33988;47.992;8.820;2023-01-01T09:35:44;10.80;66.00
48043;DHT22;33988;47.992;8.820;2023-01-01T09:38:14;10.80;66.10
48043;DHT22;33988;47.992;8.820;2023-01-01T09:46:07;11.00;66.50
48043;DHT22;33988;47.992;8.820;2023-01-01T09:48:48;11.10;66.60
48043;DHT22;33988;47.992;8.820;2023-01-01T09:51:20;11.10;66.60
48043;DHT22;33988;47.992;8.820;2023-01-01T09:54:00;11.20;66.70
48043;DHT22;33988;47.992;8.820;2023-01-01T09:56:34;11.30;66.90
48043;DHT22;33988;47.992;8.820;2023-01-01T09:59:02;11.30;67.10
48043;DHT22;33988;47.992;8.820;2023-01-01T10:01:50;11.40;67.10
48043;DHT22;33988;47.992;8.820;2023-01-01T10:07:32;11.60;67.60
48043;DHT22;33988;47.992;8.820;2023-01-01T10:13:05;11.80;67.40
48043;DHT22;33988;47.992;8.820;2023-01-01T10:15:49;11.90;67.50
48043;DHT22;33988;47.992;8.820;2023-01-01T10:18:26;12.00;67.50
48043;DHT22;33988;47.992;8.820;2023-01-01T10:21:23;12.10;67.40
48043;DHT22;33988;47.992;8.820;2023-01-01T10:23:53;12.10;67.50
48043;DHT22;33988;47.992;8.820;2023-01-01T10:26:26;12.20;67.50
48043;DHT22;33988;47.992;8.820;2023-01-01T10:29:14;12.30;67.50
48043;DHT22;33988;47.992;8.820;2023-01-01T10:31:46;12.30;68.10
48043;DHT22;33988;47.992;8.820;2023-01-01T10:34:24;12.40;67.80
48043;DHT22;33988;47.992;8.820;2023-01-01T10:36:59;12.40;68.30
48043;DHT22;33988;47.992;8.820;2023-01-01T10:39:29;12.50;68.00
48043;DHT22;33988;47.992;8.820;2023-01-01T10:41:59;12.60;68.00
48043;DHT22;33988;47.992;8.820;2023-01-01T10:44:30;12.60;68.00
48043;DHT22;33988;47.992;8.820;2023-01-01T10:49:59;12.80;68.30
48043;DHT22;33988;47.992;8.820;2023-01-01T10:52:36;12.80;68.20
48043;DHT22;33988;47.992;8.820;2023-01-01T10:55:18;12.90;68.10
48043;DHT22;33988;47.992;8.820;2023-01-01T10:57:46;13.00;68.40
48043;DHT22;33988;47.992;8.820;2023-01-01T11:00:26;13.10;68.10
48043;DHT22;33988;47.992;8.820;2023-01-01T11:03:18;13.10;68.30
48043;DHT22;33988;47.992;8.820;2023-01-01T11:08:55;13.20;68.80
48043;DHT22;33988;47.992;8.820;2023-01-01T11:11:43;13.20;68.60
48043;DHT22;33988;47.992;8.820;2023-01-01T11:14:27;13.30;69.00
48043;DHT22;33988;47.992;8.820;2023-01-01T11:16:57;13.40;68.90
48043;DHT22;33988;47.992;8.820;2023-01-01T11:19:33;13.50;68.70
48043;DHT22;33988;47.992;8.820;2023-01-01T11:22:03;13.50;68.70
48043;DHT22;33988;47.992;8.820;2023-01-01T11:24:34;13.60;68.60
48043;DHT22;33988;47.992;8.820;2023-01-01T11:29:47;13.70;68.70
48043;DHT22;33988;47.992;8.820;2023-01-01T11:32:29;13.80;68.40
48043;DHT22;33988;47.992;8.820;2023-01-01T11:35:04;13.80;69.20
48043;DHT22;33988;47.992;8.820;2023-01-01T11:37:41;13.90;68.30
48043;DHT22;33988;47.992;8.820;2023-01-01T11:40:21;14.00;68.20
48043;DHT22;33988;47.992;8.820;2023-01-01T11:42:58;14.00;68.40
48043;DHT22;33988;47.992;8.820;2023-01-01T11:45:38;14.10;68.60
48043;DHT22;33988;47.992;8.820;2023-01-01T11:48:15;14.20;68.50
48043;DHT22;33988;47.992;8.820;2023-01-01T11:50:57;14.30;68.30
48043;DHT22;33988;47.992;8.820;2023-01-01T11:56:21;14.50;67.90
48043;DHT22;33988;47.992;8.820;2023-01-01T11:59:01;14.50;68.40
48043;DHT22;33988;47.992;8.820;2023-01-01T12:01:43;14.60;67.50
48043;DHT22;33988;47.992;8.820;2023-01-01T12:07:05;14.80;67.20
48043;DHT22;33988;47.992;8.820;2023-01-01T12:09:57;14.80;67.00
48043;DHT22;33988;47.992;8.820;2023-01-01T12:12:36;14.90;66.80
48043;DHT22;33988;47.992;8.820;2023-01-01T12:15:21;15.00;66.70
48043;DHT22;33988;47.992;8.820;2023-01-01T12:18:02;15.00;66.50
48043;DHT22;33988;47.992;8.820;2023-01-01T12:20:34;15.10;66.20
48043;DHT22;33988;47.992;8.820;2023-01-01T12:23:03;15.20;66.30
48043;DHT22;33988;47.992;8.820;2023-01-01T12:25:43;15.20;66.20
48043;DHT22;33988;47.992;8.820;2023-01-01T13:00:04;15.90;64.90
48043;DHT22;33988;47.992;8.820;2023-01-01T13:08:04;16.00;63.90
48043;DHT22;33988;47.992;8.820;2023-01-01T13:11:05;16.10;63.70
48043;DHT22;33988;47.992;8.820;2023-01-01T13:13:31;16.10;63.40
48043;DHT22;33988;47.992;8.820;2023-01-01T13:15:58;16.10;63.20
48043;DHT22;33988;47.992;8.820;2023-01-01T13:18:28;16.20;63.10
48043;DHT22;33988;47.992;8.820;2023-01-01T13:21:21;16.20;62.90
48043;DHT22;33988;47.992;8.820;2023-01-01T13:24:02;16.20;62.50
48043;DHT22;33988;47.992;8.820;2023-01-01T13:26:43;16.20;62.80
48043;DHT22;33988;47.992;8.820;2023-01-01T13:40:26;16.30;61.90
48043;DHT22;33988;47.992;8.820;2023-01-01T13:45:42;16.30;62.10
48043;DHT22;33988;47.992;8.820;2023-01-01T13:51:27;16.40;62.00
48043;DHT22;33988;47.992;8.820;2023-01-01T13:54:23;16.40;62.00
48043;DHT22;33988;47.992;8.820;2023-01-01T14:03:26;16.40;61.20
48043;DHT22;33988;47.992;8.820;2023-01-01T14:05:59;16.50;61.40
48043;DHT22;33988;47.992;8.820;2023-01-01T14:08:33;16.50;61.10
48043;DHT22;33988;47.992;8.820;2023-01-01T14:11:16;16.50;61.00
48043;DHT22;33988;47.992;8.820;2023-01-01T14:13:47;16.60;61.00
48043;DHT22;33988;47.992;8.820;2023-01-01T14:16:17;16.60;61.00
48043;DHT22;33988;47.992;8.820;2023-01-01T14:18:49;16.60;60.70
48043;DHT22;33988;47.992;8.820;2023-01-01T14:21:37;16.60;60.60
48043;DHT22;33988;47.992;8.820;2023-01-01T14:24:07;16.50;60.30
48043;DHT22;33988;47.992;8.820;2023-01-01T14:26:37;16.60;60.60
48043;DHT22;33988;47.992;8.820;2023-01-01T14:29:26;16.60;60.40
48043;DHT22;33988;47.992;8.820;2023-01-01T14:31:58;16.60;60.90
48043;DHT22;33988;47.992;8.820;2023-01-01T14:34:27;16.60;60.30
48043;DHT22;33988;47.992;8.820;2023-01-01T14:37:00;16.40;60.40
48043;DHT22;33988;47.992;8.820;2023-01-01T14:39:35;16.50;60.40
48043;DHT22;33988;47.992;8.820;2023-01-01T14:42:11;16.60;60.40
48043;DHT22;33988;47.992;8.820;2023-01-01T14:44:45;16.60;60.10
48043;DHT22;33988;47.992;8.820;2023-01-01T14:47:30;16.60;60.90
48043;DHT22;33988;47.992;8.820;2023-01-01T14:50:21;16.50;60.00
48043;DHT22;33988;47.992;8.820;2023-01-01T14:52:59;16.50;59.90
48043;DHT22;33988;47.992;8.820;2023-01-01T14:55:41;16.50;60.00
48043;DHT22;33988;47.992;8.820;2023-01-01T14:58:17;16.50;60.00
48043;DHT22;33988;47.992;8.820;2023-01-01T15:00:46;16.50;60.00
48043;DHT22;33988;47.992;8.820;2023-01-01T15:03:22;16.50;60.00
48043;DHT22;33988;47.992;8.820;2023-01-01T15:06:01;16.50;59.90
48043;DHT22;33988;47.992;8.820;2023-01-01T15:08:32;16.50;59.80
48043;DHT22;33988;47.992;8.820;2023-01-01T15:11:02;16.50;59.90
48043;DHT22;33988;47.992;8.820;2023-01-01T15:13:33;16.50;59.80
48043;DHT22;33988;47.992;8.820;2023-01-01T15:16:18;16.50;59.80
48043;DHT22;33988;47.992;8.820;2023-01-01T15:18:47;16.40;59.50
48043;DHT22;33988;47.992;8.820;2023-01-01T15:24:02;16.50;59.70
48043;DHT22;33988;47.992;8.820;2023-01-01T15:26:35;16.50;59.70
48043;DHT22;33988;47.992;8.820;2023-01-01T15:29:15;16.50;59.70
48043;DHT22;33988;47.992;8.820;2023-01-01T15:31:48;16.50;59.70
48043;DHT22;33988;47.992;8.820;2023-01-01T15:34:29;16.40;59.70
48043;DHT22;33988;47.992;8.820;2023-01-01T15:37:34;16.40;59.70
48043;DHT22;33988;47.992;8.820;2023-01-01T15:43:04;16.40;59.80
48043;DHT22;33988;47.992;8.820;2023-01-01T15:45:38;16.40;60.50
48043;DHT22;33988;47.992;8.820;2023-01-01T15:51:02;16.30;59.70
48043;DHT22;33988;47.992;8.820;2023-01-01T15:53:55;16.30;59.70
48043;DHT22;33988;47.992;8.820;2023-01-01T15:56:25;16.20;59.70
48043;DHT22;33988;47.992;8.820;2023-01-01T15:59:00;16.20;59.80
48043;DHT22;33988;47.992;8.820;2023-01-01T16:01:36;16.20;59.80
48043;DHT22;33988;47.992;8.820;2023-01-01T16:06:48;16.10;59.70
48043;DHT22;33988;47.992;8.820;2023-01-01T16:09:17;16.00;59.50
48043;DHT22;33988;47.992;8.820;2023-01-01T16:11:50;15.90;59.70
48043;DHT22;33988;47.992;8.820;2023-01-01T16:14:18;15.90;59.70
48043;DHT22;33988;47.992;8.820;2023-01-01T16:16:52;15.80;59.80
48043;DHT22;33988;47.992;8.820;2023-01-01T16:19:25;15.80;59.90
48043;DHT22;33988;47.992;8.820;2023-01-01T16:21:53;15.70;60.00
48043;DHT22;33988;47.992;8.820;2023-01-01T16:24:22;15.70;60.10
48043;DHT22;33988;47.992;8.820;2023-01-01T16:26:50;15.60;60.10
48043;DHT22;33988;47.992;8.820;2023-01-01T16:29:17;15.60;60.20
48043;DHT22;33988;47.992;8.820;2023-01-01T16:31:45;15.50;60.20
48043;DHT22;33988;47.992;8.820;2023-01-01T16:34:13;15.50;60.10
48043;DHT22;33988;47.992;8.820;2023-01-01T16:36:43;15.40;60.00
48043;DHT22;33988;47.992;8.820;2023-01-01T16:39:13;15.40;60.00
48043;DHT22;33988;47.992;8.820;2023-01-01T16:41:42;15.30;60.00
48043;DHT22;33988;47.992;8.820;2023-01-01T16:44:14;15.20;60.00
48043;DHT22;33988;47.992;8.820;2023-01-01T16:46:41;15.20;60.10
48043;DHT22;33988;47.992;8.820;2023-01-01T16:49:09;15.10;60.10
48043;DHT22;33988;47.992;8.820;2023-01-01T16:51:36;15.10;61.00
48043;DHT22;33988;47.992;8.820;2023-01-01T16:54:08;15.10;60.30
48043;DHT22;33988;47.992;8.820;2023-01-01T16:56:40;15.00;60.30
48043;DHT22;33988;47.992;8.820;2023-01-01T16:59:07;14.70;60.40
48043;DHT22;33988;47.992;8.820;2023-01-01T17:01:36;14.80;60.60
48043;DHT22;33988;47.992;8.820;2023-01-01T17:04:03;14.80;60.70
48043;DHT22;33988;47.992;8.820;2023-01-01T17:06:30;14.80;60.90
48043;DHT22;33988;47.992;8.820;2023-01-01T17:09:00;14.70;60.90
48043;DHT22;33988;47.992;8.820;2023-01-01T17:11:30;14.70;61.00
48043;DHT22;33988;47.992;8.820;2023-01-01T17:13:59;14.70;61.10
48043;DHT22;33988;47.992;8.820;2023-01-01T17:16:31;14.60;61.00
48043;DHT22;33988;47.992;8.820;2023-01-01T17:19:05;14.60;61.00
48043;DHT22;33988;47.992;8.820;2023-01-01T17:21:45;14.60;61.00
48043;DHT22;33988;47.992;8.820;2023-01-01T17:24:16;14.50;61.20
48043;DHT22;33988;47.992;8.820;2023-01-01T17:26:44;14.60;61.30
48043;DHT22;33988;47.992;8.820;2023-01-01T17:29:12;14.50;61.40
48043;DHT22;33988;47.992;8.820;2023-01-01T17:31:39;14.50;61.50
48043;DHT22;33988;47.992;8.820;2023-01-01T17:34:06;14.50;61.50
48043;DHT22;33988;47.992;8.820;2023-01-01T17:36:39;14.50;61.60
48043;DHT22;33988;47.992;8.820;2023-01-01T17:39:12;14.50;61.70
48043;DHT22;33988;47.992;8.820;2023-01-01T17:41:41;14.50;61.70
48043;DHT22;33988;47.992;8.820;2023-01-01T17:44:08;14.40;61.60
48043;DHT22;33988;47.992;8.820;2023-01-01T17:46:38;14.40;61.60
48043;DHT22;33988;47.992;8.820;2023-01-01T17:49:09;14.40;61.50
48043;DHT22;33988;47.992;8.820;2023-01-01T17:51:39;14.40;61.50
48043;DHT22;33988;47.992;8.820;2023-01-01T17:54:08;14.40;61.50
48043;DHT22;33988;47.992;8.820;2023-01-01T17:56:39;14.40;61.40
48043;DHT22;33988;47.992;8.820;2023-01-01T17:59:06;14.30;61.30
48043;DHT22;33988;47.992;8.820;2023-01-01T18:01:33;14.30;61.40
48043;DHT22;33988;47.992;8.820;2023-01-01T18:04:07;14.20;61.40
48043;DHT22;33988;47.992;8.820;2023-01-01T18:06:36;14.20;61.40
48043;DHT22;33988;47.992;8.820;2023-01-01T18:09:11;14.10;61.30
48043;DHT22;33988;47.992;8.820;2023-01-01T18:11:41;14.10;61.20